Time;durP1;ratioP1;P1;durP2;ratioP2;P2;SDS_P1;SDS_P2;PMS_P1;PMS_P2;Temp;Humidity;BMP_temperature;BMP_pressure;BME280_temperature;BME280_humidity;BME280_pressure;Samples;Min_cycle;Max_cycle;Signal;HPM_P1;HPM_P2
2021/12/16 00:08:33;;;;;;;23.53;9.03;;;;;;;;;;4999084;28;20322;-81
2021/12/16 00:32:52;;;;;;;15.53;8.17;;;;;;;;;;5002600;28;20294;-79
2021/12/16 00:35:20;;;;;;;13.37;7.10;;;;;;;;;;4978385;28;20214;-80
2021/12/16 00:37:47;;;;;;;19.03;7.90;;;;;;;;;;5007705;28;20295;-81
2021/12/16 00:40:15;;;;;;;15.63;7.90;;;;;;;;;;4984756;28;20294;-80
2021/12/16 00:42:53;;;;;;;14.30;7.40;;;;;;;;;;5009460;28;20738;-81
2021/12/16 00:47:58;;;;;;;21.33;8.83;;;;;;;;;;4996896;28;20235;-79
2021/12/16 00:55:53;;;;;;;14.83;7.90;;;;;;;;;;4999024;28;20217;-81
2021/12/16 00:58:24;;;;;;;27.30;7.67;;;;;;;;;;5008954;28;21191;-81
2021/12/16 01:01:00;;;;;;;17.93;7.37;;;;;;;;;;5010780;28;20779;-81
2021/12/16 01:03:40;;;;;;;25.40;8.03;;;;;;;;;;4999248;28;20234;-81
2021/12/16 01:09:17;;;;;;;20.07;8.27;;;;;;;;;;5010824;28;20265;-80
2021/12/16 01:40:00;;;;;;;38.30;7.60;;;;;;;;;;5003350;28;20278;-79
2021/12/16 01:55:22;;;;;;;20.10;7.03;;;;;;;;;;5006038;28;20238;-81
2021/12/16 01:57:55;;;;;;;26.77;8.90;;;;;;;;;;4989525;28;20675;-80
2021/12/16 02:00:44;;;;;;;26.07;7.07;;;;;;;;;;4984396;28;20314;-81
2021/12/16 02:03:11;;;;;;;27.97;16.40;;;;;;;;;;4985366;28;20242;-84
2021/12/16 02:08:26;;;;;;;22.07;9.83;;;;;;;;;;5008181;28;20250;-79
2021/12/16 02:11:08;;;;;;;26.80;7.27;;;;;;;;;;4998991;28;20231;-82
2021/12/16 02:30:37;;;;;;;14.77;6.63;;;;;;;;;;5003222;28;20418;-80
2021/12/16 02:37:51;;;;;;;26.73;6.47;;;;;;;;;;5003149;28;20314;-82
2021/12/16 02:40:19;;;;;;;19.60;6.90;;;;;;;;;;5011107;28;20294;-80
2021/12/16 02:42:58;;;;;;;15.00;6.00;;;;;;;;;;5009315;28;20319;-77
2021/12/16 02:51:22;;;;;;;9.30;5.50;;;;;;;;;;5005326;28;20291;-79
2021/12/16 02:53:54;;;;;;;13.00;6.17;;;;;;;;;;5008880;28;20730;-78
2021/12/16 02:56:21;;;;;;;12.67;5.83;;;;;;;;;;4997041;28;20262;-80
2021/12/16 02:58:52;;;;;;;24.63;6.23;;;;;;;;;;5003007;28;20652;-81
2021/12/16 03:01:28;;;;;;;11.43;5.90;;;;;;;;;;5009613;28;20222;-83
2021/12/16 03:03:57;;;;;;;19.67;6.17;;;;;;;;;;5001072;28;20307;-79
2021/12/16 03:06:27;;;;;;;10.10;6.07;;;;;;;;;;5001957;28;20303;-83
2021/12/16 03:08:54;;;;;;;18.17;7.07;;;;;;;;;;5007255;28;20224;-79
2021/12/16 03:11:27;;;;;;;19.33;7.33;;;;;;;;;;5007564;28;20211;-81
2021/12/16 03:14:19;;;;;;;11.50;5.17;;;;;;;;;;4987373;28;20298;-80
2021/12/16 03:17:16;;;;;;;7.70;4.90;;;;;;;;;;5006655;28;20286;-80
2021/12/16 03:20:09;;;;;;;9.47;4.90;;;;;;;;;;5001934;28;20239;-82
2021/12/16 03:25:22;;;;;;;6.60;4.20;;;;;;;;;;5007141;28;20495;-80
2021/12/16 03:35:53;;;;;;;8.63;4.63;;;;;;;;;;5006346;28;20298;-79
2021/12/16 03:38:20;;;;;;;8.63;4.93;;;;;;;;;;4992274;28;20314;-81
2021/12/16 03:40:48;;;;;;;9.63;5.37;;;;;;;;;;5010024;28;20240;-81
2021/12/16 03:43:18;;;;;;;10.57;5.70;;;;;;;;;;4995698;28;20418;-80
2021/12/16 03:48:43;;;;;;;7.17;4.20;;;;;;;;;;5004292;28;20277;-79
2021/12/16 03:51:16;;;;;;;7.10;4.50;;;;;;;;;;4998523;28;20235;-82
2021/12/16 03:53:44;;;;;;;6.80;4.57;;;;;;;;;;4999884;28;20223;-80
2021/12/16 03:56:12;;;;;;;7.70;4.80;;;;;;;;;;5004262;28;20673;-82
2021/12/16 03:58:40;;;;;;;7.87;4.67;;;;;;;;;;4985211;28;20321;-82
2021/12/16 04:01:09;;;;;;;7.73;4.63;;;;;;;;;;4999814;28;20208;-80
2021/12/16 04:03:37;;;;;;;7.57;4.20;;;;;;;;;;5002244;28;20319;-81
2021/12/16 04:06:04;;;;;;;6.93;4.30;;;;;;;;;;5001151;28;20303;-81
2021/12/16 04:08:32;;;;;;;7.67;4.40;;;;;;;;;;5002416;28;20341;-82
2021/12/16 04:11:22;;;;;;;8.43;5.10;;;;;;;;;;4986405;28;20306;-80
2021/12/16 04:13:55;;;;;;;11.07;5.50;;;;;;;;;;4999395;28;20336;-79
2021/12/16 04:16:28;;;;;;;18.97;10.20;;;;;;;;;;4998002;28;20682;-80
2021/12/16 04:19:15;;;;;;;11.10;5.97;;;;;;;;;;5007915;28;20729;-80
2021/12/16 04:21:44;;;;;;;10.00;5.53;;;;;;;;;;4998722;28;20668;-80
2021/12/16 04:24:12;;;;;;;10.90;5.77;;;;;;;;;;5004585;28;20567;-82
2021/12/16 04:26:40;;;;;;;10.30;5.87;;;;;;;;;;5001712;28;20683;-81
2021/12/16 04:29:07;;;;;;;12.50;6.13;;;;;;;;;;5005137;28;20722;-81
2021/12/16 04:31:37;;;;;;;11.90;6.43;;;;;;;;;;5008042;28;20229;-81
2021/12/16 04:34:05;;;;;;;13.57;5.77;;;;;;;;;;4990880;28;20762;-80
2021/12/16 04:36:33;;;;;;;10.43;6.50;;;;;;;;;;4999975;28;20240;-80
2021/12/16 04:39:00;;;;;;;13.13;8.10;;;;;;;;;;4988635;28;20323;-81
2021/12/16 04:41:32;;;;;;;10.37;5.97;;;;;;;;;;4983283;28;20660;-82
2021/12/16 04:44:02;;;;;;;10.67;5.80;;;;;;;;;;4986000;28;20363;-81
2021/12/16 04:46:30;;;;;;;9.93;5.50;;;;;;;;;;4999398;28;20207;-81
2021/12/16 04:48:59;;;;;;;12.37;6.10;;;;;;;;;;4994364;28;20341;-80
2021/12/16 04:51:27;;;;;;;10.53;6.07;;;;;;;;;;4976661;28;20630;-83
2021/12/16 04:53:55;;;;;;;12.40;6.67;;;;;;;;;;4997345;28;20240;-80
2021/12/16 04:56:22;;;;;;;11.87;6.77;;;;;;;;;;5005595;28;20622;-84
2021/12/16 04:58:51;;;;;;;12.03;6.57;;;;;;;;;;5000884;28;20262;-82
2021/12/16 05:01:20;;;;;;;14.23;6.73;;;;;;;;;;5005301;28;20490;-83
2021/12/16 05:03:47;;;;;;;13.60;7.33;;;;;;;;;;4992202;28;20997;-83
2021/12/16 05:06:14;;;;;;;12.20;7.13;;;;;;;;;;5008842;28;20239;-80
2021/12/16 05:08:42;;;;;;;14.67;8.57;;;;;;;;;;5007530;28;20319;-82
2021/12/16 05:11:12;;;;;;;15.07;9.87;;;;;;;;;;5005034;28;20219;-84
2021/12/16 05:13:41;;;;;;;12.93;9.47;;;;;;;;;;5012205;28;20243;-83
2021/12/16 05:16:11;;;;;;;14.37;8.07;;;;;;;;;;5012016;28;20200;-79
2021/12/16 05:18:39;;;;;;;9.87;7.20;;;;;;;;;;4993360;28;21122;-78
2021/12/16 05:21:08;;;;;;;10.73;6.80;;;;;;;;;;5011299;28;20291;-80
2021/12/16 05:26:22;;;;;;;9.50;6.00;;;;;;;;;;5007458;28;20286;-81
2021/12/16 05:28:53;;;;;;;16.50;9.70;;;;;;;;;;5004840;28;20755;-80
2021/12/16 05:31:25;;;;;;;25.03;14.23;;;;;;;;;;4985568;28;20200;-81
2021/12/16 05:33:54;;;;;;;27.90;16.90;;;;;;;;;;4991758;28;20232;-80
2021/12/16 05:36:21;;;;;;;34.83;18.87;;;;;;;;;;5005302;28;20625;-81
2021/12/16 05:38:49;;;;;;;16.67;10.97;;;;;;;;;;5006142;28;20714;-80
2021/12/16 05:41:19;;;;;;;13.83;8.23;;;;;;;;;;5008298;28;20211;-84
2021/12/16 05:43:47;;;;;;;12.40;7.30;;;;;;;;;;5005788;28;20223;-78
2021/12/16 05:46:15;;;;;;;13.50;6.13;;;;;;;;;;4995667;28;20243;-81
2021/12/16 05:48:44;;;;;;;11.90;6.43;;;;;;;;;;4984728;28;20270;-81
2021/12/16 05:51:16;;;;;;;9.97;5.97;;;;;;;;;;5009405;28;21041;-80
2021/12/16 05:53:44;;;;;;;10.47;5.97;;;;;;;;;;4988303;28;20243;-80
2021/12/16 05:56:11;;;;;;;8.97;5.60;;;;;;;;;;5007709;28;20704;-80
2021/12/16 05:58:39;;;;;;;11.30;5.90;;;;;;;;;;5004767;28;20254;-80
2021/12/16 06:01:18;;;;;;;10.13;5.43;;;;;;;;;;5008772;28;20239;-81
2021/12/16 06:03:45;;;;;;;10.03;5.57;;;;;;;;;;4993615;28;20223;-78
2021/12/16 06:06:13;;;;;;;12.37;6.13;;;;;;;;;;5002867;28;20211;-80
2021/12/16 06:08:40;;;;;;;8.77;5.33;;;;;;;;;;5005770;28;20234;-81
2021/12/16 06:13:40;;;;;;;12.70;6.77;;;;;;;;;;5011830;28;20243;-81
2021/12/16 06:27:10;;;;;;;10.60;6.37;;;;;;;;;;5016774;28;20202;-82
2021/12/16 06:29:38;;;;;;;11.20;6.27;;;;;;;;;;5018036;28;20927;-80
2021/12/16 06:32:06;;;;;;;9.27;5.57;;;;;;;;;;5001458;28;20207;-81
2021/12/16 06:34:33;;;;;;;10.03;5.57;;;;;;;;;;5013888;28;20219;-81
2021/12/16 06:37:00;;;;;;;12.27;6.10;;;;;;;;;;5000889;28;20287;-81
2021/12/16 06:39:27;;;;;;;12.10;6.57;;;;;;;;;;5013054;28;20223;-81
2021/12/16 06:41:55;;;;;;;10.57;5.63;;;;;;;;;;4993955;28;20881;-78
2021/12/16 06:44:34;;;;;;;9.43;6.27;;;;;;;;;;5005527;28;20711;-79
2021/12/16 06:47:07;;;;;;;11.50;6.60;;;;;;;;;;5003974;28;20291;-78
2021/12/16 06:49:37;;;;;;;12.67;6.63;;;;;;;;;;4988606;28;20306;-79
2021/12/16 06:52:06;;;;;;;11.53;5.53;;;;;;;;;;5007826;28;20301;-80
2021/12/16 06:54:52;;;;;;;14.30;8.23;;;;;;;;;;5009776;28;20247;-79
2021/12/16 06:57:25;;;;;;;13.13;7.73;;;;;;;;;;5016411;28;20612;-80
2021/12/16 07:00:06;;;;;;;14.37;7.10;;;;;;;;;;5007135;28;20321;-81
2021/12/16 07:05:13;;;;;;;12.40;6.37;;;;;;;;;;5010835;28;20258;-80
2021/12/16 07:07:40;;;;;;;11.47;6.73;;;;;;;;;;5008994;28;20199;-80
2021/12/16 07:10:09;;;;;;;13.33;6.60;;;;;;;;;;5008852;28;21036;-80
2021/12/16 07:12:38;;;;;;;12.80;6.50;;;;;;;;;;4994277;28;20203;-79
2021/12/16 07:15:08;;;;;;;12.63;6.87;;;;;;;;;;5002766;28;20232;-79
2021/12/16 07:17:36;;;;;;;9.60;5.23;;;;;;;;;;5013121;28;20294;-79
2021/12/16 07:20:04;;;;;;;13.03;6.50;;;;;;;;;;5011652;28;20250;-80
2021/12/16 07:22:33;;;;;;;10.57;6.03;;;;;;;;;;5006243;28;20234;-79
2021/12/16 07:25:02;;;;;;;14.17;6.60;;;;;;;;;;5000131;28;20362;-80
2021/12/16 07:27:32;;;;;;;11.77;6.33;;;;;;;;;;5006145;28;20296;-80
2021/12/16 07:30:00;;;;;;;10.20;6.17;;;;;;;;;;5007397;28;20672;-81
2021/12/16 07:32:27;;;;;;;10.83;6.47;;;;;;;;;;4991373;28;20204;-82
2021/12/16 07:34:54;;;;;;;11.23;5.90;;;;;;;;;;5017944;28;20228;-77
2021/12/16 07:37:21;;;;;;;10.90;6.13;;;;;;;;;;5013852;28;20239;-82
2021/12/16 07:39:50;;;;;;;14.10;6.53;;;;;;;;;;5003502;28;20449;-83
2021/12/16 07:42:25;;;;;;;10.43;6.67;;;;;;;;;;5012993;28;20247;-79
2021/12/16 07:44:53;;;;;;;11.97;6.83;;;;;;;;;;5005810;28;20242;-81
2021/12/16 07:47:20;;;;;;;11.93;6.40;;;;;;;;;;5006784;28;20200;-81
2021/12/16 07:49:47;;;;;;;9.77;6.07;;;;;;;;;;5014104;28;20703;-77
2021/12/16 07:52:20;;;;;;;8.97;6.00;;;;;;;;;;5008233;28;20263;-79
2021/12/16 07:54:47;;;;;;;13.57;6.70;;;;;;;;;;4999795;28;20203;-79
2021/12/16 07:57:14;;;;;;;13.50;7.13;;;;;;;;;;4995605;28;20320;-80
2021/12/16 07:59:42;;;;;;;11.30;6.70;;;;;;;;;;5011802;28;20319;-75
2021/12/16 08:02:11;;;;;;;11.57;6.23;;;;;;;;;;5005852;28;20339;-79
2021/12/16 08:04:42;;;;;;;10.43;5.83;;;;;;;;;;5003744;28;20226;-79
2021/12/16 08:07:14;;;;;;;10.17;5.93;;;;;;;;;;4983621;28;20299;-77
2021/12/16 08:09:42;;;;;;;12.27;7.03;;;;;;;;;;4999901;28;20219;-77
2021/12/16 08:12:12;;;;;;;13.37;9.17;;;;;;;;;;5004868;28;20232;-73
2021/12/16 08:14:40;;;;;;;12.90;8.77;;;;;;;;;;5000463;28;20239;-79
2021/12/16 08:17:07;;;;;;;15.00;9.60;;;;;;;;;;4986039;28;20208;-79
2021/12/16 08:19:34;;;;;;;13.43;9.10;;;;;;;;;;4999662;28;20678;-76
2021/12/16 08:22:03;;;;;;;18.27;12.63;;;;;;;;;;5005325;28;20798;-81
2021/12/16 08:24:30;;;;;;;47.87;32.10;;;;;;;;;;4990956;28;20219;-80
2021/12/16 08:26:57;;;;;;;17.43;11.57;;;;;;;;;;5004988;28;20294;-77
2021/12/16 08:29:25;;;;;;;22.50;13.70;;;;;;;;;;5002533;28;20813;-79
2021/12/16 08:31:53;;;;;;;20.33;11.47;;;;;;;;;;5005853;28;20291;-78
2021/12/16 08:34:20;;;;;;;11.90;6.93;;;;;;;;;;4999564;28;20728;-77
2021/12/16 08:36:47;;;;;;;10.27;6.43;;;;;;;;;;4995150;28;20306;-78
2021/12/16 08:39:16;;;;;;;11.10;6.67;;;;;;;;;;5003544;28;20223;-80
2021/12/16 08:41:53;;;;;;;10.83;6.40;;;;;;;;;;5000049;28;20222;-79
2021/12/16 08:44:21;;;;;;;19.90;10.10;;;;;;;;;;5005352;28;20289;-79
2021/12/16 08:46:50;;;;;;;15.27;9.50;;;;;;;;;;4983171;28;20203;-78
2021/12/16 08:49:17;;;;;;;12.67;7.20;;;;;;;;;;5003314;28;20310;-78
2021/12/16 08:51:46;;;;;;;16.27;10.10;;;;;;;;;;5000758;28;20239;-80
2021/12/16 08:54:14;;;;;;;14.83;8.43;;;;;;;;;;5001339;28;20752;-78
2021/12/16 08:56:41;;;;;;;11.60;7.33;;;;;;;;;;5003591;28;20637;-78
2021/12/16 08:59:08;;;;;;;9.27;5.23;;;;;;;;;;4991123;28;20247;-76
2021/12/16 09:01:47;;;;;;;13.70;8.83;;;;;;;;;;5001061;28;20210;-79
2021/12/16 09:04:16;;;;;;;10.13;5.90;;;;;;;;;;5003623;28;20250;-80
2021/12/16 09:06:44;;;;;;;7.73;5.43;;;;;;;;;;5008318;28;20207;-78
2021/12/16 09:09:11;;;;;;;9.87;6.07;;;;;;;;;;5004511;28;20642;-76
2021/12/16 09:11:45;;;;;;;13.73;8.80;;;;;;;;;;5006483;28;20197;-79
2021/12/16 09:14:13;;;;;;;13.07;7.80;;;;;;;;;;4993821;28;20819;-80
2021/12/16 09:16:40;;;;;;;12.60;8.67;;;;;;;;;;4999343;28;20223;-79
2021/12/16 09:19:08;;;;;;;12.07;8.23;;;;;;;;;;5004750;28;20276;-80
2021/12/16 09:21:37;;;;;;;9.77;6.00;;;;;;;;;;5006416;28;20294;-79
2021/12/16 09:24:07;;;;;;;9.43;5.60;;;;;;;;;;5003155;28;20301;-80
2021/12/16 09:26:34;;;;;;;9.87;6.63;;;;;;;;;;4985898;28;20295;-79
2021/12/16 09:29:02;;;;;;;9.43;7.17;;;;;;;;;;5001105;28;20284;-80
2021/12/16 09:31:30;;;;;;;10.27;7.27;;;;;;;;;;4984511;28;20959;-77
2021/12/16 09:34:04;;;;;;;9.20;6.43;;;;;;;;;;5003383;28;20274;-80
2021/12/16 09:36:33;;;;;;;9.63;6.43;;;;;;;;;;5006697;28;20229;-79
2021/12/16 09:39:00;;;;;;;8.17;5.73;;;;;;;;;;5002315;28;20254;-81
2021/12/16 09:41:28;;;;;;;7.40;5.10;;;;;;;;;;5004795;28;20212;-79
2021/12/16 09:43:56;;;;;;;11.07;7.40;;;;;;;;;;4986939;28;20669;-79
2021/12/16 09:46:25;;;;;;;10.20;7.33;;;;;;;;;;4999382;28;20290;-76
2021/12/16 09:48:53;;;;;;;9.23;5.60;;;;;;;;;;4980895;28;20282;-78
2021/12/16 09:51:23;;;;;;;5.73;3.97;;;;;;;;;;5002382;28;20233;-79
2021/12/16 09:53:52;;;;;;;6.07;4.40;;;;;;;;;;4986648;28;20212;-80
2021/12/16 09:56:22;;;;;;;5.93;4.63;;;;;;;;;;4999142;28;20214;-80
2021/12/16 09:58:50;;;;;;;5.97;4.37;;;;;;;;;;4999583;28;20306;-80
2021/12/16 10:01:19;;;;;;;6.13;4.57;;;;;;;;;;4990830;28;20203;-80
2021/12/16 10:03:48;;;;;;;7.80;4.57;;;;;;;;;;5002280;28;20722;-78
2021/12/16 10:06:16;;;;;;;5.50;4.30;;;;;;;;;;5001309;28;20203;-79
2021/12/16 10:08:44;;;;;;;6.97;4.77;;;;;;;;;;5004577;28;20589;-79
2021/12/16 10:11:11;;;;;;;6.47;4.77;;;;;;;;;;4984607;28;20294;-79
2021/12/16 10:13:46;;;;;;;6.70;4.80;;;;;;;;;;4989321;28;20235;-78
2021/12/16 10:18:59;;;;;;;5.00;4.37;;;;;;;;;;4999709;28;20259;-78
2021/12/16 10:21:28;;;;;;;6.67;3.90;;;;;;;;;;5001217;28;20208;-79
2021/12/16 10:23:55;;;;;;;5.10;4.10;;;;;;;;;;5000493;28;20239;-79
2021/12/16 10:26:24;;;;;;;5.13;3.73;;;;;;;;;;5002796;28;20200;-75
2021/12/16 10:28:54;;;;;;;6.00;4.03;;;;;;;;;;5001276;28;20313;-80
2021/12/16 10:31:24;;;;;;;4.83;3.63;;;;;;;;;;5001264;28;20260;-79
2021/12/16 10:33:52;;;;;;;7.23;3.80;;;;;;;;;;5003474;28;20719;-78
2021/12/16 10:36:32;;;;;;;4.43;3.73;;;;;;;;;;5001639;28;20651;-77
2021/12/16 10:39:02;;;;;;;5.57;3.83;;;;;;;;;;5005511;28;20250;-78
2021/12/16 10:41:37;;;;;;;4.47;3.10;;;;;;;;;;4989906;28;20333;-77
2021/12/16 10:44:17;;;;;;;5.73;3.80;;;;;;;;;;4997561;28;20306;-77
2021/12/16 10:46:50;;;;;;;6.13;4.20;;;;;;;;;;5007086;28;20199;-80
2021/12/16 10:49:27;;;;;;;5.00;3.97;;;;;;;;;;4999723;28;20248;-78
2021/12/16 10:51:56;;;;;;;5.70;4.37;;;;;;;;;;5001720;28;20231;-78
2021/12/16 10:54:52;;;;;;;6.20;4.10;;;;;;;;;;4987952;28;20299;-78
2021/12/16 10:57:28;;;;;;;4.57;3.80;;;;;;;;;;4965233;28;20238;-80
2021/12/16 10:59:57;;;;;;;5.37;4.50;;;;;;;;;;4982286;28;20317;-78
2021/12/16 11:02:32;;;;;;;5.73;4.13;;;;;;;;;;4996823;28;20238;-77
2021/12/16 11:05:05;;;;;;;5.50;4.00;;;;;;;;;;5002185;28;20875;-79
2021/12/16 11:07:34;;;;;;;5.27;3.60;;;;;;;;;;5001209;28;20247;-79
2021/12/16 11:10:11;;;;;;;3.87;3.50;;;;;;;;;;5006563;28;22032;-77
2021/12/16 11:12:43;;;;;;;5.57;4.17;;;;;;;;;;4997610;28;20202;-78
2021/12/16 11:15:16;;;;;;;33.27;15.57;;;;;;;;;;5004050;28;20200;-81
2021/12/16 11:17:46;;;;;;;20.53;10.97;;;;;;;;;;4996696;28;20318;-81
2021/12/16 11:20:26;;;;;;;10.60;7.30;;;;;;;;;;4989794;28;20866;-81
2021/12/16 11:22:55;;;;;;;30.63;17.40;;;;;;;;;;4998344;28;20294;-80
2021/12/16 11:25:34;;;;;;;18.70;11.73;;;;;;;;;;4975983;28;20357;-77
2021/12/16 11:28:16;;;;;;;15.93;10.67;;;;;;;;;;4986166;28;20357;-80
2021/12/16 11:30:45;;;;;;;5.50;4.40;;;;;;;;;;4996081;28;20310;-80
2021/12/16 11:33:15;;;;;;;5.27;4.10;;;;;;;;;;4997761;28;20502;-80
2021/12/16 11:35:48;;;;;;;6.87;5.53;;;;;;;;;;4992104;28;20200;-80
2021/12/16 11:38:23;;;;;;;7.63;5.90;;;;;;;;;;5000879;28;20243;-78
2021/12/16 11:41:00;;;;;;;6.20;4.43;;;;;;;;;;4993588;28;20247;-78
2021/12/16 11:43:31;;;;;;;4.50;3.80;;;;;;;;;;5012768;28;20294;-79
2021/12/16 11:45:59;;;;;;;5.17;4.13;;;;;;;;;;5009814;28;20327;-78
2021/12/16 11:48:31;;;;;;;5.17;4.30;;;;;;;;;;5002703;28;20262;-80
2021/12/16 11:51:25;;;;;;;6.03;4.33;;;;;;;;;;4986076;28;20232;-79
2021/12/16 11:53:54;;;;;;;4.50;4.07;;;;;;;;;;5008315;28;20207;-78
2021/12/16 11:56:33;;;;;;;5.30;4.50;;;;;;;;;;5005099;28;20214;-78
2021/12/16 11:59:02;;;;;;;5.47;4.20;;;;;;;;;;4999417;28;20229;-80
2021/12/16 12:01:29;;;;;;;5.27;4.50;;;;;;;;;;4999098;28;20353;-80
2021/12/16 12:04:04;;;;;;;5.53;4.63;;;;;;;;;;5000379;28;20239;-80
2021/12/16 12:06:32;;;;;;;6.37;4.97;;;;;;;;;;5005759;28;20314;-81
2021/12/16 12:09:00;;;;;;;6.07;4.50;;;;;;;;;;5015048;28;20276;-80
2021/12/16 12:11:32;;;;;;;4.50;3.87;;;;;;;;;;5004310;28;20668;-78
2021/12/16 12:14:02;;;;;;;5.27;4.27;;;;;;;;;;5006296;28;20295;-78
2021/12/16 12:16:31;;;;;;;5.13;4.50;;;;;;;;;;5005109;28;20227;-79
2021/12/16 12:19:00;;;;;;;5.17;4.67;;;;;;;;;;4986529;28;20266;-79
2021/12/16 12:21:48;;;;;;;6.73;5.10;;;;;;;;;;4998333;28;20240;-78
2021/12/16 12:24:37;;;;;;;7.97;5.07;;;;;;;;;;5005079;28;20650;-80
2021/12/16 12:27:09;;;;;;;5.83;5.20;;;;;;;;;;5003706;28;20235;-82
2021/12/16 12:29:36;;;;;;;8.53;5.60;;;;;;;;;;5003942;28;20224;-81
2021/12/16 12:32:09;;;;;;;6.90;5.30;;;;;;;;;;5007084;28;20646;-81
2021/12/16 12:34:37;;;;;;;5.93;4.97;;;;;;;;;;4997449;28;20337;-81
2021/12/16 12:37:06;;;;;;;6.70;5.57;;;;;;;;;;5003444;28;20285;-78
2021/12/16 12:39:37;;;;;;;7.33;5.37;;;;;;;;;;4996030;28;20999;-79
2021/12/16 12:42:06;;;;;;;9.17;7.40;;;;;;;;;;4998530;28;20231;-81
2021/12/16 12:44:33;;;;;;;7.80;6.60;;;;;;;;;;5008150;28;20286;-79
2021/12/16 12:47:01;;;;;;;6.73;5.97;;;;;;;;;;4996011;28;20235;-78
2021/12/16 12:49:30;;;;;;;7.77;5.83;;;;;;;;;;4999565;28;20252;-79
2021/12/16 12:52:06;;;;;;;6.47;5.23;;;;;;;;;;4983986;28;20211;-79
2021/12/16 12:54:34;;;;;;;61.47;41.80;;;;;;;;;;4994618;28;20547;-79
2021/12/16 12:57:17;;;;;;;46.90;33.80;;;;;;;;;;4996062;28;20200;-77
2021/12/16 12:59:44;;;;;;;29.03;21.90;;;;;;;;;;5003914;28;20250;-80
2021/12/16 13:02:20;;;;;;;11.03;8.60;;;;;;;;;;4998338;28;20215;-80
2021/12/16 13:04:56;;;;;;;11.30;8.57;;;;;;;;;;5005532;28;20246;-80
2021/12/16 13:07:37;;;;;;;9.00;7.30;;;;;;;;;;5001920;28;20746;-80
2021/12/16 13:10:10;;;;;;;9.20;6.83;;;;;;;;;;4997308;28;20231;-78
2021/12/16 13:12:48;;;;;;;9.67;6.97;;;;;;;;;;5004584;28;20242;-77
2021/12/16 13:15:30;;;;;;;9.90;7.33;;;;;;;;;;5004651;28;20210;-78
2021/12/16 13:24:06;;;;;;;8.03;6.90;;;;;;;;;;4999565;28;20215;-78
2021/12/16 13:26:49;;;;;;;8.87;7.17;;;;;;;;;;4999561;28;20234;-78
2021/12/16 13:29:29;;;;;;;9.17;7.13;;;;;;;;;;5003224;28;20279;-77
2021/12/16 13:32:11;;;;;;;8.63;7.30;;;;;;;;;;4999677;28;20200;-80
2021/12/16 13:34:43;;;;;;;10.47;8.20;;;;;;;;;;5007253;28;20650;-79
2021/12/16 13:37:21;;;;;;;11.33;8.03;;;;;;;;;;4999810;28;20559;-78
2021/12/16 13:39:51;;;;;;;11.63;7.97;;;;;;;;;;5004655;28;20247;-78
2021/12/16 13:42:18;;;;;;;11.60;8.00;;;;;;;;;;4988816;28;20750;-79
2021/12/16 13:45:00;;;;;;;11.50;8.97;;;;;;;;;;5000348;28;20199;-78
2021/12/16 14:01:56;;;;;;;10.40;7.37;;;;;;;;;;4997952;28;20227;-77
2021/12/16 14:07:26;;;;;;;12.33;8.97;;;;;;;;;;4995663;28;20327;-77
2021/12/16 14:10:01;;;;;;;10.83;7.67;;;;;;;;;;4983984;28;20262;-76
2021/12/16 14:17:45;;;;;;;10.37;8.03;;;;;;;;;;4998855;28;20453;-79
2021/12/16 14:24:15;;;;;;;11.50;8.07;;;;;;;;;;4999737;28;20207;-78
2021/12/16 14:34:54;;;;;;;13.37;8.37;;;;;;;;;;4993667;28;20510;-78
2021/12/16 14:40:34;;;;;;;10.13;7.83;;;;;;;;;;4997535;28;20322;-78
2021/12/16 14:43:14;;;;;;;13.30;8.83;;;;;;;;;;5007974;28;20203;-79
2021/12/16 14:45:46;;;;;;;12.00;8.93;;;;;;;;;;5001110;28;20979;-79
2021/12/16 14:51:04;;;;;;;13.50;9.40;;;;;;;;;;5008959;28;20275;-78
2021/12/16 14:53:36;;;;;;;12.37;8.90;;;;;;;;;;4977545;28;20283;-77
2021/12/16 14:56:06;;;;;;;12.83;9.60;;;;;;;;;;5007373;28;20208;-80
2021/12/16 14:58:33;;;;;;;14.97;9.97;;;;;;;;;;5010167;28;20255;-79
2021/12/16 15:01:04;;;;;;;12.37;9.13;;;;;;;;;;5006341;28;20243;-78
2021/12/16 15:03:36;;;;;;;14.10;9.23;;;;;;;;;;5003748;28;20239;-82
2021/12/16 15:06:06;;;;;;;11.83;9.00;;;;;;;;;;4976199;28;20273;-80
2021/12/16 15:09:11;;;;;;;14.17;9.63;;;;;;;;;;5002335;28;20277;-77
2021/12/16 15:11:32;;;;;;;15.00;10.57;;;;;;;;;;5003925;28;20278;-80
2021/12/16 15:14:05;;;;;;;15.80;10.40;;;;;;;;;;5008370;28;20234;-79
2021/12/16 15:43:37;;;;;;;22.07;14.77;;;;;;;;;;5009551;28;20203;-79
2021/12/16 15:46:05;;;;;;;19.47;12.53;;;;;;;;;;4995896;28;20297;-78
2021/12/16 15:48:32;;;;;;;19.13;12.70;;;;;;;;;;4986987;28;20223;-79
2021/12/16 15:51:08;;;;;;;16.57;11.70;;;;;;;;;;4999716;28;20846;-79
2021/12/16 15:53:57;;;;;;;15.90;10.80;;;;;;;;;;4998490;28;20231;-78
2021/12/16 15:56:24;;;;;;;18.13;11.67;;;;;;;;;;4991359;28;20228;-79
2021/12/16 15:58:54;;;;;;;14.83;10.77;;;;;;;;;;4996522;28;20328;-78
2021/12/16 16:01:24;;;;;;;16.03;11.93;;;;;;;;;;4989499;28;20254;-78
2021/12/16 16:03:51;;;;;;;17.17;11.57;;;;;;;;;;4992658;28;20208;-78
2021/12/16 16:06:20;;;;;;;17.17;11.77;;;;;;;;;;4993683;28;20250;-78
2021/12/16 16:08:50;;;;;;;16.53;11.73;;;;;;;;;;4995099;28;20258;-80
2021/12/16 16:11:18;;;;;;;17.27;11.93;;;;;;;;;;5008040;28;20286;-79
2021/12/16 16:13:50;;;;;;;20.30;14.53;;;;;;;;;;4989335;28;20242;-77
2021/12/16 16:16:20;;;;;;;20.17;14.53;;;;;;;;;;4983759;28;20303;-77
2021/12/16 16:19:00;;;;;;;17.33;12.37;;;;;;;;;;5001419;28;20339;-77
2021/12/16 16:21:33;;;;;;;18.77;11.90;;;;;;;;;;5003864;28;20712;-77
2021/12/16 16:24:05;;;;;;;17.57;12.63;;;;;;;;;;5002590;28;20618;-78
2021/12/16 16:26:35;;;;;;;18.30;12.70;;;;;;;;;;5002599;28;20295;-77
2021/12/16 16:29:07;;;;;;;16.27;11.43;;;;;;;;;;4999830;28;20781;-78
2021/12/16 16:31:35;;;;;;;20.60;14.00;;;;;;;;;;5001580;28;20315;-78
2021/12/16 16:34:07;;;;;;;23.27;16.37;;;;;;;;;;4989684;28;20291;-80
2021/12/16 16:36:40;;;;;;;17.13;12.30;;;;;;;;;;5000688;28;20207;-81
2021/12/16 16:39:09;;;;;;;16.23;11.70;;;;;;;;;;4993735;28;20718;-78
2021/12/16 16:41:44;;;;;;;19.37;12.90;;;;;;;;;;5009510;28;20203;-77
2021/12/16 16:44:14;;;;;;;18.50;12.33;;;;;;;;;;4999612;28;20214;-75
2021/12/16 16:47:08;;;;;;;19.03;12.67;;;;;;;;;;4999406;28;20220;-81
2021/12/16 16:49:47;;;;;;;18.27;12.40;;;;;;;;;;4995733;23;20722;-65
2021/12/16 16:52:16;;;;;;;17.90;12.20;;;;;;;;;;4961952;28;20631;-63
2021/12/16 16:54:45;;;;;;;17.13;12.13;;;;;;;;;;4974523;28;20200;-64
2021/12/16 16:57:27;;;;;;;17.03;12.13;;;;;;;;;;4958886;28;20216;-65
2021/12/16 16:59:57;;;;;;;18.07;12.00;;;;;;;;;;4962066;28;20606;-63
2021/12/16 17:02:42;;;;;;;21.27;14.47;;;;;;;;;;4956809;28;20259;-64
2021/12/16 17:05:12;;;;;;;45.90;30.23;;;;;;;;;;4966596;28;20607;-63
2021/12/16 17:07:45;;;;;;;37.17;25.60;;;;;;;;;;4963404;28;20235;-64
2021/12/16 17:10:22;;;;;;;31.00;21.67;;;;;;;;;;4977474;28;20209;-63
2021/12/16 17:12:49;;;;;;;25.70;18.67;;;;;;;;;;4963292;28;20610;-65
2021/12/16 17:15:43;;;;;;;21.10;14.77;;;;;;;;;;4968077;28;20204;-64
2021/12/16 17:18:20;;;;;;;22.13;15.70;;;;;;;;;;4967113;28;20710;-63
2021/12/16 17:20:48;;;;;;;22.20;14.40;;;;;;;;;;4964914;28;20219;-65
2021/12/16 17:23:15;;;;;;;20.27;14.13;;;;;;;;;;4965333;28;20247;-65
2021/12/16 17:25:43;;;;;;;18.13;13.33;;;;;;;;;;4979275;28;20211;-64
2021/12/16 17:28:12;;;;;;;16.53;11.77;;;;;;;;;;4963224;28;20200;-64
2021/12/16 17:30:44;;;;;;;21.60;14.43;;;;;;;;;;4959240;28;20219;-64
2021/12/16 17:33:13;;;;;;;23.67;16.90;;;;;;;;;;4969212;28;20231;-64
2021/12/16 17:35:45;;;;;;;21.37;15.53;;;;;;;;;;4970412;28;20216;-63
2021/12/16 17:38:12;;;;;;;22.33;16.27;;;;;;;;;;4968718;28;20240;-65
2021/12/16 17:40:42;;;;;;;23.63;15.87;;;;;;;;;;4975933;28;20200;-63
2021/12/16 17:43:11;;;;;;;21.40;14.90;;;;;;;;;;4962518;28;20231;-65
2021/12/16 17:45:41;;;;;;;23.10;15.87;;;;;;;;;;4976364;28;20208;-63
2021/12/16 17:48:10;;;;;;;21.53;15.40;;;;;;;;;;4968014;28;20263;-63
2021/12/16 17:50:40;;;;;;;24.27;16.80;;;;;;;;;;4978272;28;20622;-63
2021/12/16 17:53:09;;;;;;;21.70;15.17;;;;;;;;;;4970885;28;20268;-63
2021/12/16 17:55:38;;;;;;;29.83;19.27;;;;;;;;;;4973671;28;20209;-64
2021/12/16 17:58:12;;;;;;;36.17;21.63;;;;;;;;;;4973359;28;20205;-64
2021/12/16 18:00:47;;;;;;;32.60;19.90;;;;;;;;;;4973345;28;20224;-64
2021/12/16 18:03:23;;;;;;;27.40;17.53;;;;;;;;;;4960281;28;20239;-64
2021/12/16 18:05:53;;;;;;;29.83;18.77;;;;;;;;;;4962381;28;20208;-65
2021/12/16 18:08:32;;;;;;;27.30;17.23;;;;;;;;;;4974286;28;20725;-64
2021/12/16 18:11:03;;;;;;;32.77;17.33;;;;;;;;;;4977031;28;20211;-66
2021/12/16 18:13:39;;;;;;;31.33;21.43;;;;;;;;;;4967884;28;20658;-65
2021/12/16 18:16:08;;;;;;;35.40;22.80;;;;;;;;;;4974319;28;20271;-65
2021/12/16 18:18:35;;;;;;;29.13;18.23;;;;;;;;;;4961027;28;20204;-64
2021/12/16 18:21:03;;;;;;;28.33;17.47;;;;;;;;;;4983053;28;20212;-65
2021/12/16 18:23:30;;;;;;;29.03;19.10;;;;;;;;;;4957946;28;20215;-64
2021/12/16 18:26:02;;;;;;;30.70;19.50;;;;;;;;;;4971648;28;20212;-65
2021/12/16 18:28:38;;;;;;;32.27;20.10;;;;;;;;;;4959072;28;20207;-64
2021/12/16 18:31:09;;;;;;;34.23;22.03;;;;;;;;;;4960126;28;20205;-65
2021/12/16 18:33:44;;;;;;;39.30;23.03;;;;;;;;;;4956003;28;20204;-64
2021/12/16 18:36:18;;;;;;;39.67;23.63;;;;;;;;;;4965188;28;20221;-64